Time;durP1;ratioP1;P1;durP2;ratioP2;P2;SDS_P1;SDS_P2;PMS_P1;PMS_P2;Temp;Humidity;BMP_temperature;BMP_pressure;BME280_temperature;BME280_humidity;BME280_pressure;Samples;Min_cycle;Max_cycle;Signal;HPM_P1;HPM_P2
2023/04/13 00:00:22;;;;;;;4.93;1.40;;;13.70;43.10;;;;;;20842450;28;20050;-56
2023/04/13 00:10:24;;;;;;;3.03;1.20;;;13.50;43.10;;;;;;20842643;28;20049;-54
2023/04/13 00:20:28;;;;;;;5.57;1.27;;;13.40;43.60;;;;;;20840404;28;20051;-56
2023/04/13 00:30:30;;;;;;;5.15;1.15;;;13.30;43.70;;;;;;20840993;28;20411;-54
2023/04/13 00:40:31;;;;;;;3.90;1.02;;;13.30;43.70;;;;;;20840400;28;20432;-56
2023/04/13 00:50:33;;;;;;;2.33;1.00;;;13.20;42.70;;;;;;20838242;28;20095;-56
2023/04/13 01:00:37;;;;;;;3.13;0.95;;;13.10;41.60;;;;;;20837659;28;20522;-55
2023/04/13 01:11:02;;;;;;;3.83;1.27;;;13.10;41.30;;;;;;20836350;28;20049;-56
2023/04/13 01:21:04;;;;;;;5.57;1.25;;;13.20;40.90;;;;;;20834669;28;20057;-55
2023/04/13 01:31:10;;;;;;;2.15;1.25;;;13.00;40.60;;;;;;20834650;28;20045;-55
2023/04/13 01:41:11;;;;;;;1.63;0.82;;;13.00;40.30;;;;;;20834526;28;20479;-55
2023/04/13 01:51:21;;;;;;;4.15;1.00;;;12.70;38.40;;;;;;20832298;28;20049;-57
2023/04/13 02:01:24;;;;;;;4.22;1.13;;;12.80;38.40;;;;;;20833076;28;20045;-54
2023/04/13 02:11:27;;;;;;;1.88;0.85;;;12.70;38.40;;;;;;20832306;28;20049;-56
2023/04/13 02:21:28;;;;;;;5.03;1.25;;;12.60;39.40;;;;;;20830048;28;20053;-56
2023/04/13 02:31:30;;;;;;;2.92;0.95;;;12.40;38.20;;;;;;20830719;28;20049;-56
2023/04/13 02:41:33;;;;;;;3.40;1.70;;;12.40;37.40;;;;;;20829380;28;20072;-56
2023/04/13 02:51:34;;;;;;;3.67;1.17;;;12.50;36.80;;;;;;20830100;28;20582;-55
2023/04/13 03:01:35;;;;;;;2.75;1.17;;;12.40;37.20;;;;;;20829334;28;20054;-55
2023/04/13 03:11:37;;;;;;;3.33;1.10;;;12.40;37.50;;;;;;20828948;28;20056;-55
2023/04/13 03:21:40;;;;;;;2.35;0.90;;;12.50;37.80;;;;;;20827150;28;20061;-55
2023/04/13 03:31:41;;;;;;;4.88;1.20;;;12.50;37.90;;;;;;20827389;28;20053;-55
2023/04/13 03:41:43;;;;;;;2.28;0.82;;;12.40;38.00;;;;;;20827975;28;20406;-54
2023/04/13 03:51:44;;;;;;;2.13;0.90;;;12.20;37.50;;;;;;20826334;28;20058;-56
2023/04/13 04:01:45;;;;;;;1.70;0.88;;;12.20;37.30;;;;;;20842029;28;20049;-55
2023/04/13 04:11:47;;;;;;;4.07;0.80;;;12.20;37.50;;;;;;20840522;28;20050;-57
2023/04/13 04:21:48;;;;;;;4.35;1.08;;;12.00;37.90;;;;;;20839240;28;20053;-56
2023/04/13 04:31:51;;;;;;;2.95;1.10;;;12.20;37.80;;;;;;20838831;28;20057;-55
2023/04/13 04:41:54;;;;;;;3.22;0.90;;;12.00;38.80;;;;;;20840583;28;20069;-55
2023/04/13 04:51:56;;;;;;;2.28;0.80;;;11.80;39.20;;;;;;20838696;28;20052;-55
2023/04/13 05:01:58;;;;;;;4.80;0.80;;;11.70;39.40;;;;;;20839159;28;20050;-55
2023/04/13 05:11:59;;;;;;;2.08;0.90;;;11.60;39.50;;;;;;20837077;28;20049;-55
2023/04/13 05:22:01;;;;;;;3.65;1.10;;;11.50;39.50;;;;;;20835941;28;20045;-55
2023/04/13 05:32:02;;;;;;;5.18;1.27;;;11.50;39.50;;;;;;20836915;28;20052;-56
2023/04/13 05:42:04;;;;;;;3.88;1.10;;;11.50;39.80;;;;;;20835856;28;20056;-56
2023/04/13 05:52:06;;;;;;;4.47;1.10;;;11.50;39.90;;;;;;20835089;28;20136;-56
2023/04/13 06:02:08;;;;;;;3.22;1.20;;;11.30;40.40;;;;;;20834116;28;20053;-57
2023/04/13 06:12:09;;;;;;;4.85;2.13;;;11.40;40.20;;;;;;20832179;28;20064;-57
2023/04/13 06:22:10;;;;;;;3.15;1.10;;;11.30;39.80;;;;;;20833358;28;20053;-58
2023/04/13 06:32:12;;;;;;;2.92;1.25;;;11.20;39.80;;;;;;20831132;28;20060;-56
2023/04/13 06:42:14;;;;;;;8.50;1.48;;;11.20;40.10;;;;;;20831170;28;20041;-55
2023/04/13 06:52:15;;;;;;;2.65;1.00;;;11.20;39.80;;;;;;20829799;28;20110;-56
2023/04/13 07:02:16;;;;;;;4.03;1.02;;;11.40;40.10;;;;;;20829400;28;20426;-55
2023/04/13 07:12:18;;;;;;;2.60;1.33;;;11.60;39.20;;;;;;20828650;28;20052;-56
2023/04/13 07:22:19;;;;;;;3.85;1.20;;;11.90;39.10;;;;;;20828590;28;20058;-57
2023/04/13 07:32:21;;;;;;;3.22;0.90;;;12.20;39.40;;;;;;20838290;28;20053;-60
2023/04/13 07:42:23;;;;;;;2.20;0.88;;;12.30;38.30;;;;;;20845049;28;20062;-57
2023/04/13 07:52:25;;;;;;;3.10;1.00;;;12.60;37.50;;;;;;20844691;28;20049;-56
2023/04/13 08:02:26;;;;;;;6.53;1.50;;;12.80;37.60;;;;;;20842992;28;20050;-58
2023/04/13 08:12:28;;;;;;;2.22;0.82;;;13.30;36.20;;;;;;20841712;28;20053;-57
2023/04/13 08:22:29;;;;;;;4.22;1.38;;;13.40;35.20;;;;;;20840768;28;20057;-57
2023/04/13 08:32:30;;;;;;;4.30;1.20;;;13.60;36.00;;;;;;20841371;28;20057;-56
2023/04/13 08:42:35;;;;;;;2.60;1.02;;;13.70;35.10;;;;;;20839118;28;20107;-58
2023/04/13 08:52:38;;;;;;;2.33;1.00;;;14.00;34.30;;;;;;20839838;28;20434;-56
2023/04/13 09:02:41;;;;;;;2.05;1.10;;;13.90;34.90;;;;;;20837820;28;20103;-56
2023/04/13 09:12:42;;;;;;;2.10;1.02;;;14.00;34.50;;;;;;20835818;28;20053;-56
2023/04/13 09:22:44;;;;;;;2.88;1.02;;;14.30;33.50;;;;;;20830346;28;20046;-58
2023/04/13 09:32:46;;;;;;;3.83;1.05;;;14.50;34.10;;;;;;20832621;28;20457;-57
2023/04/13 09:43:00;;;;;;;8.50;1.10;;;14.70;39.60;;;;;;20834710;28;20049;-58
2023/04/13 09:53:03;;;;;;;4.45;0.80;;;14.70;36.00;;;;;;20832118;28;20048;-55
2023/04/13 10:03:11;;;;;;;14.45;1.85;;;14.70;34.90;;;;;;20833712;28;20107;-57
2023/04/13 10:13:25;;;;;;;5.05;0.85;;;15.30;34.30;;;;;;20832868;28;20053;-57
2023/04/13 10:23:28;;;;;;;4.25;1.05;;;15.70;32.90;;;;;;20831442;28;20049;-57
2023/04/13 10:33:31;;;;;;;2.70;1.23;;;15.20;31.70;;;;;;20827885;28;20053;-57
2023/04/13 10:43:33;;;;;;;2.88;1.02;;;14.70;31.90;;;;;;20825743;28;20064;-58
2023/04/13 10:53:35;;;;;;;3.80;1.20;;;14.90;30.20;;;;;;20831176;28;20133;-58
2023/04/13 11:03:37;;;;;;;8.40;1.48;;;15.60;39.30;;;;;;20832499;28;20410;-55
2023/04/13 11:13:47;;;;;;;8.50;1.70;;;16.30;29.30;;;;;;20846486;28;20415;-56
2023/04/13 11:23:54;;;;;;;4.22;1.20;;;15.40;29.90;;;;;;20844920;28;20450;-57
2023/04/13 11:33:56;;;;;;;4.47;1.25;;;15.50;29.80;;;;;;20845672;28;20057;-58
2023/04/13 11:44:01;;;;;;;3.65;0.95;;;15.70;29.90;;;;;;20844537;28;20143;-56
2023/04/13 11:54:03;;;;;;;3.40;1.17;;;15.40;30.70;;;;;;20835614;28;20049;-57
2023/04/13 12:04:05;;;;;;;4.65;1.15;;;15.90;29.80;;;;;;20840889;28;20053;-56
2023/04/13 12:14:06;;;;;;;6.25;1.58;;;16.00;29.20;;;;;;20840929;28;20064;-56
2023/04/13 12:24:08;;;;;;;4.88;1.50;;;16.10;29.50;;;;;;20838821;28;20049;-56
2023/04/13 12:34:10;;;;;;;6.53;1.77;;;16.20;30.20;;;;;;20839985;28;20084;-57
2023/04/13 12:44:11;;;;;;;2.15;0.90;;;16.20;30.80;;;;;;20839124;28;20127;-58
2023/04/13 12:54:13;;;;;;;1.83;0.93;;;16.30;29.30;;;;;;20839806;28;20072;-56
2023/04/13 13:04:15;;;;;;;2.80;1.25;;;16.40;29.20;;;;;;20837701;28;20057;-57
2023/04/13 13:14:16;;;;;;;4.00;1.10;;;16.50;29.10;;;;;;20837667;28;20061;-56
2023/04/13 13:24:17;;;;;;;1.85;0.70;;;16.70;27.60;;;;;;20836500;28;20103;-56
2023/04/13 13:34:19;;;;;;;4.05;1.15;;;16.70;27.20;;;;;;20835874;28;20045;-57
2023/04/13 13:44:20;;;;;;;4.82;1.50;;;16.80;27.60;;;;;;20835950;28;20049;-56
2023/04/13 13:54:22;;;;;;;3.45;1.10;;;16.80;29.20;;;;;;20834757;28;20434;-56
2023/04/13 14:04:23;;;;;;;4.07;1.10;;;17.00;28.90;;;;;;20832737;28;20050;-57
2023/04/13 14:14:24;;;;;;;4.80;1.05;;;17.10;29.80;;;;;;20831976;28;20060;-57
2023/04/13 14:24:26;;;;;;;2.25;0.90;;;17.00;29.50;;;;;;20832774;28;20119;-56
2023/04/13 14:34:27;;;;;;;7.13;1.13;;;16.80;30.40;;;;;;20830944;28;20049;-56
2023/04/13 14:44:29;;;;;;;1.67;0.60;;;17.00;30.30;;;;;;20831514;28;20103;-56
2023/04/13 14:54:30;;;;;;;2.47;0.63;;;17.30;29.90;;;;;;20831364;28;20401;-57
2023/04/13 15:04:31;;;;;;;4.82;1.08;;;17.40;29.30;;;;;;20830966;28;20123;-57
2023/04/13 15:14:33;;;;;;;4.25;0.88;;;17.60;29.10;;;;;;20829745;28;20049;-57
2023/04/13 15:24:34;;;;;;;2.72;0.77;;;17.50;29.30;;;;;;20829776;28;20041;-57
2023/04/13 15:34:36;;;;;;;2.55;0.75;;;17.50;29.40;;;;;;20829947;28;20410;-57
2023/04/13 15:44:37;;;;;;;2.28;0.70;;;17.40;29.50;;;;;;20828126;28;20054;-56
2023/04/13 15:54:39;;;;;;;1.65;0.70;;;17.40;29.20;;;;;;20839008;28;20164;-56
2023/04/13 16:04:40;;;;;;;2.47;0.80;;;17.30;29.80;;;;;;20843008;28;20045;-59
2023/04/13 16:14:43;;;;;;;6.22;3.33;;;17.20;30.20;;;;;;20840802;28;20058;-56
2023/04/13 16:24:44;;;;;;;2.35;0.80;;;17.00;30.80;;;;;;20841213;28;20479;-57
2023/04/13 16:34:46;;;;;;;1.77;0.77;;;17.10;31.10;;;;;;20840429;28;20060;-59
2023/04/13 16:44:47;;;;;;;5.32;2.38;;;17.10;31.00;;;;;;20840888;28;20055;-56
2023/04/13 16:54:49;;;;;;;7.80;1.38;;;17.10;31.30;;;;;;20840000;28;20046;-57
2023/04/13 17:04:50;;;;;;;3.63;0.88;;;16.90;31.00;;;;;;20837647;28;20049;-56
2023/04/13 17:14:52;;;;;;;4.93;1.80;;;16.70;31.00;;;;;;20829984;28;20068;-56
2023/04/13 17:24:54;;;;;;;6.15;3.85;;;16.70;31.90;;;;;;20837301;28;20045;-56
2023/04/13 17:34:56;;;;;;;1.88;0.85;;;16.60;32.10;;;;;;20835732;28;20060;-58
2023/04/13 17:44:57;;;;;;;1.65;0.75;;;16.60;31.70;;;;;;20835448;28;20057;-56
2023/04/13 17:54:58;;;;;;;1.05;0.70;;;16.50;32.00;;;;;;20834434;28;20045;-55
2023/04/13 18:05:00;;;;;;;2.78;0.90;;;16.40;32.20;;;;;;20833015;28;20399;-57
2023/04/13 18:15:02;;;;;;;1.70;0.88;;;16.30;32.30;;;;;;20832062;28;20064;-57
2023/04/13 18:25:05;;;;;;;3.10;0.80;;;16.10;32.70;;;;;;20831734;28;20053;-57
2023/04/13 18:35:07;;;;;;;2.58;1.05;;;15.90;33.10;;;;;;20829901;28;20049;-59
2023/04/13 18:45:09;;;;;;;2.10;0.90;;;15.70;36.70;;;;;;20829761;28;20041;-57
2023/04/13 18:55:10;;;;;;;2.00;0.60;;;15.20;34.30;;;;;;20831369;28;20045;-59
2023/04/13 19:05:12;;;;;;;1.88;0.82;;;14.90;34.60;;;;;;20829949;28;20049;-58
2023/04/13 19:15:13;;;;;;;1.50;0.80;;;14.90;34.90;;;;;;20829406;28;20057;-58
2023/04/13 19:25:15;;;;;;;3.17;1.05;;;14.70;35.60;;;;;;20831764;28;20053;-57
2023/04/13 19:35:17;;;;;;;3.10;0.90;;;14.90;35.60;;;;;;20843908;28;20061;-57
2023/04/13 19:45:18;;;;;;;2.90;0.93;;;14.90;35.70;;;;;;20845289;28;20487;-57
2023/04/13 19:55:19;;;;;;;5.45;1.38;;;14.80;36.20;;;;;;20844371;28;20482;-57
2023/04/13 20:05:21;;;;;;;2.15;1.35;;;14.70;37.00;;;;;;20842686;28;20057;-57
2023/04/13 20:15:22;;;;;;;2.35;1.15;;;14.70;36.90;;;;;;20840604;28;20052;-59
2023/04/13 20:25:25;;;;;;;2.42;1.05;;;14.70;37.30;;;;;;20841368;28;20045;-57
2023/04/13 20:35:27;;;;;;;1.70;1.20;;;14.60;37.50;;;;;;20840124;28;20049;-57
2023/04/13 20:45:28;;;;;;;2.92;1.90;;;14.50;37.90;;;;;;20838480;28;20045;-59
2023/04/13 20:55:30;;;;;;;2.65;1.70;;;14.40;37.90;;;;;;20839093;28;20068;-57
2023/04/13 21:05:32;;;;;;;3.35;1.20;;;14.50;38.10;;;;;;20839054;28;20050;-57
2023/04/13 21:15:33;;;;;;;3.55;1.45;;;14.40;38.20;;;;;;20837553;28;20069;-58
2023/04/13 21:25:35;;;;;;;4.40;2.10;;;14.30;38.50;;;;;;20837860;28;20103;-59
2023/04/13 21:35:37;;;;;;;4.07;1.35;;;14.20;38.70;;;;;;20837048;28;20057;-58
2023/04/13 21:45:38;;;;;;;3.58;1.42;;;14.20;38.80;;;;;;20835024;28;20049;-57
2023/04/13 21:55:40;;;;;;;5.72;2.22;;;14.20;39.10;;;;;;20833785;28;20049;-58
2023/04/13 22:05:41;;;;;;;4.82;1.85;;;14.10;39.70;;;;;;20834476;28;20049;-58
2023/04/13 22:15:42;;;;;;;3.80;1.20;;;14.10;40.10;;;;;;20832430;28;20049;-59
2023/04/13 22:25:59;;;;;;;2.58;1.48;;;14.00;40.80;;;;;;20833329;28;20050;-57
2023/04/13 22:36:04;;;;;;;6.47;2.38;;;14.00;41.30;;;;;;20832940;28;20053;-57
2023/04/13 22:46:06;;;;;;;3.33;1.83;;;14.00;41.40;;;;;;20832518;28;20483;-57
2023/04/13 22:56:08;;;;;;;3.53;2.28;;;14.00;42.20;;;;;;20831686;28;20349;-57
2023/04/13 23:06:09;;;;;;;3.75;2.03;;;13.80;42.40;;;;;;20830437;28;20049;-56
2023/04/13 23:16:11;;;;;;;4.32;2.50;;;13.60;42.80;;;;;;20830562;28;20053;-56
2023/04/13 23:26:13;;;;;;;2.38;1.50;;;13.40;43.10;;;;;;20829582;28;20047;-57
2023/04/13 23:36:15;;;;;;;3.95;2.17;;;13.40;43.20;;;;;;20830582;28;20502;-58
2023/04/13 23:46:16;;;;;;;3.45;1.25;;;13.50;43.70;;;;;;20829888;28;20096;-57
2023/04/13 23:56:18;;;;;;;3.17;1.27;;;13.40;44.20;;;;;;20829623;28;20483;-58
